McClellan, Pennsylvania
Current Conditions -  °F | °C
As of 11:58 AM on Sunday 23 Nov 2014 (Local Time) from KMUI Reporting Station
Clear Clear  
Wind Chill: 48°   Ceiling: Unl
Heat Index: 50°   Visibility: 10mi
Dew Point: 24°   Wind: 5mph
Humidity: 37%   Direction: 200°SSW
Pressure: 30.14"   Gusts: NA
Location:  40.4949°N, 76.8115°W
Report Text: KMUI 231658Z AUTO 20004KT 10SM CLR 10/M04 A3014 RMK AO2 SLP213 T00981045 $
Loading
Personal Weather Stations






























Interactive Weather Map New forecast layout! Learn more

10-Day Weather Forecast

Advertisements
Track Severe Weather on mobile